AAL283 KPHX-KLAX
Flight info
| Callsign | AAL283 |
|---|---|
| Flight time | 1h 9m |
| Altitude | 32000 |
| Route | KEENS3 WLVRN ESTWD HLYWD1 |
| Aircraft | B77W/H-SDE1E2E3FGHIJ2J3J4J5M1RWXY/LB1D1 |
Departure
| Time | 2026-05-04 08:33 |
|---|---|
| Airport | Phoenix Sky Harbor International Airport (KPHX) |
Arrival
| Time | 2026-05-04 09:42 |
|---|---|
| Airport | Los Angeles International Airport (KLAX) |
| Time | Latitude | Longitude | Altitude | Speed | Heading |
|---|---|---|---|---|---|
| 2026-05-04 07:51 | 33.43856 | -111.99952 | 1130 ft | 0 kts | 175° |
| 2026-05-04 08:19 | 33.43905 | -112.00000 | 1136 ft | 0 kts | 89° |
| 2026-05-04 08:24 | 33.43906 | -111.99913 | 1130 ft | 0 kts | 89° |
| 2026-05-04 08:24 | 33.43907 | -111.99887 | 1132 ft | 10 kts | 84° |
| 2026-05-04 08:24 | 33.43957 | -111.99846 | 1134 ft | 10 kts | 345° |
| 2026-05-04 08:24 | 33.43976 | -111.99877 | 1136 ft | 3 kts | 278° |
| 2026-05-04 08:25 | 33.43975 | -111.99887 | 1137 ft | 2 kts | 265° |
| 2026-05-04 08:25 | 33.43972 | -111.99965 | 1134 ft | 11 kts | 270° |
| 2026-05-04 08:25 | 33.43973 | -112.00066 | 1135 ft | 12 kts | 269° |
| 2026-05-04 08:25 | 33.43973 | -112.00170 | 1134 ft | 12 kts | 269° |
| 2026-05-04 08:26 | 33.43972 | -112.00274 | 1134 ft | 12 kts | 269° |
| 2026-05-04 08:27 | 33.43248 | -112.00371 | 1134 ft | 18 kts | 163° |
| 2026-05-04 08:28 | 33.43215 | -112.00237 | 1136 ft | 18 kts | 88° |
| 2026-05-04 08:28 | 33.43214 | -112.00084 | 1135 ft | 18 kts | 90° |
| 2026-05-04 08:28 | 33.43214 | -111.99932 | 1135 ft | 18 kts | 90° |
| 2026-05-04 08:28 | 33.43214 | -111.99780 | 1135 ft | 18 kts | 90° |
| 2026-05-04 08:29 | 33.43214 | -111.99627 | 1135 ft | 18 kts | 90° |
| 2026-05-04 08:29 | 33.43213 | -111.99475 | 1135 ft | 18 kts | 90° |
| 2026-05-04 08:29 | 33.43211 | -111.99396 | 1135 ft | 0 kts | 99° |
| 2026-05-04 08:31 | 33.43149 | -111.99347 | 1139 ft | 6 kts | 181° |
| 2026-05-04 08:33 | 33.43048 | -112.05293 | 2675 ft | 203 kts | 264° |
| 2026-05-04 08:33 | 33.42954 | -112.07065 | 2975 ft | 229 kts | 257° |
| 2026-05-04 08:35 | 33.39226 | -112.21226 | 8703 ft | 281 kts | 276° |
| 2026-05-04 08:35 | 33.39593 | -112.23561 | 9481 ft | 289 kts | 277° |
| 2026-05-04 08:35 | 33.39958 | -112.25948 | 10333 ft | 293 kts | 276° |
| 2026-05-04 08:35 | 33.40326 | -112.28405 | 10764 ft | 317 kts | 276° |
| 2026-05-04 08:37 | 33.42795 | -112.44969 | 15896 ft | 365 kts | 276° |
| 2026-05-04 08:37 | 33.43237 | -112.47966 | 17048 ft | 365 kts | 276° |
| 2026-05-04 08:37 | 33.43678 | -112.50968 | 18195 ft | 368 kts | 276° |
| 2026-05-04 08:38 | 33.44123 | -112.54000 | 19076 ft | 371 kts | 276° |
| 2026-05-04 08:38 | 33.44570 | -112.57053 | 20031 ft | 373 kts | 276° |
| 2026-05-04 08:38 | 33.45009 | -112.60120 | 21006 ft | 373 kts | 274° |
| 2026-05-04 08:40 | 33.45880 | -112.82022 | 26454 ft | 397 kts | 284° |
| 2026-05-04 08:40 | 33.46964 | -112.85093 | 27026 ft | 402 kts | 287° |
| 2026-05-04 08:40 | 33.48086 | -112.88179 | 27624 ft | 405 kts | 287° |
| 2026-05-04 08:41 | 33.49204 | -112.91291 | 28266 ft | 407 kts | 286° |
| 2026-05-04 08:41 | 33.50321 | -112.94430 | 28901 ft | 409 kts | 286° |
| 2026-05-04 08:41 | 33.51426 | -112.97557 | 29732 ft | 405 kts | 286° |
| 2026-05-04 08:41 | 33.52503 | -113.00614 | 30565 ft | 399 kts | 285° |
| 2026-05-04 08:42 | 33.53578 | -113.03672 | 31410 ft | 394 kts | 285° |
| 2026-05-04 08:42 | 33.54634 | -113.06695 | 31839 ft | 394 kts | 285° |
| 2026-05-04 08:42 | 33.55695 | -113.09752 | 31818 ft | 395 kts | 285° |
| 2026-05-04 08:43 | 33.57793 | -113.15778 | 31831 ft | 390 kts | 285° |
| 2026-05-04 08:43 | 33.59881 | -113.21794 | 31833 ft | 391 kts | 285° |
| 2026-05-04 08:44 | 33.61963 | -113.27804 | 31838 ft | 392 kts | 285° |
| 2026-05-04 08:46 | 33.70313 | -113.51996 | 32054 ft | 392 kts | 284° |
| 2026-05-04 08:46 | 33.72399 | -113.58069 | 32047 ft | 393 kts | 284° |
| 2026-05-04 08:47 | 33.74468 | -113.64105 | 32030 ft | 393 kts | 284° |
| 2026-05-04 08:47 | 33.75508 | -113.67143 | 31828 ft | 393 kts | 284° |
| 2026-05-04 08:47 | 33.76550 | -113.70188 | 31819 ft | 393 kts | 284° |
| 2026-05-04 08:48 | 33.78604 | -113.76202 | 31809 ft | 393 kts | 284° |
| 2026-05-04 08:48 | 33.80647 | -113.82200 | 31815 ft | 394 kts | 284° |
| 2026-05-04 08:49 | 33.82688 | -113.88226 | 31821 ft | 394 kts | 284° |
| 2026-05-04 08:50 | 33.89910 | -114.09639 | 31801 ft | 394 kts | 284° |
| 2026-05-04 08:51 | 33.91419 | -114.15856 | 31801 ft | 386 kts | 275° |
| 2026-05-04 08:51 | 33.92425 | -114.22211 | 31805 ft | 386 kts | 275° |
| 2026-05-04 08:52 | 33.93441 | -114.28541 | 31805 ft | 388 kts | 275° |
| 2026-05-04 08:52 | 33.94493 | -114.34874 | 31795 ft | 388 kts | 275° |
| 2026-05-04 08:54 | 33.98752 | -114.60246 | 31774 ft | 389 kts | 275° |
| 2026-05-04 08:55 | 33.99819 | -114.66656 | 31787 ft | 389 kts | 275° |
| 2026-05-04 08:55 | 34.00867 | -114.72971 | 31803 ft | 389 kts | 275° |
| 2026-05-04 09:01 | 34.11833 | -115.40288 | 31803 ft | 391 kts | 274° |
| 2026-05-04 09:01 | 34.12860 | -115.46722 | 31797 ft | 390 kts | 274° |
| 2026-05-04 09:02 | 34.13886 | -115.53162 | 31820 ft | 391 kts | 274° |
| 2026-05-04 09:02 | 34.14908 | -115.59605 | 31785 ft | 391 kts | 274° |
| 2026-05-04 09:03 | 34.15930 | -115.66061 | 31830 ft | 391 kts | 273° |
| 2026-05-04 09:03 | 34.16138 | -115.72445 | 31828 ft | 377 kts | 258° |
| 2026-05-04 09:04 | 34.15443 | -115.78754 | 31862 ft | 380 kts | 259° |
| 2026-05-04 09:04 | 34.14822 | -115.85111 | 31867 ft | 382 kts | 259° |
| 2026-05-04 09:05 | 34.14206 | -115.91489 | 31894 ft | 382 kts | 259° |
| 2026-05-04 09:05 | 34.13589 | -115.97826 | 31927 ft | 381 kts | 259° |
| 2026-05-04 09:05 | 34.13316 | -116.00877 | 33205 ft | 352 kts | 259° |
| 2026-05-04 09:06 | 34.13054 | -116.03822 | 33587 ft | 360 kts | 259° |
| 2026-05-04 09:07 | 34.05359 | -116.22308 | 33194 ft | 362 kts | 224° |
| 2026-05-04 09:08 | 34.03417 | -116.24182 | 32773 ft | 362 kts | 224° |
| 2026-05-04 09:08 | 34.01439 | -116.26086 | 32311 ft | 363 kts | 224° |
| 2026-05-04 09:08 | 33.99464 | -116.27996 | 32014 ft | 361 kts | 224° |
| 2026-05-04 09:08 | 33.97502 | -116.29902 | 31534 ft | 361 kts | 224° |
| 2026-05-04 09:09 | 33.95562 | -116.31796 | 31196 ft | 358 kts | 224° |
| 2026-05-04 09:09 | 33.93632 | -116.33686 | 30968 ft | 356 kts | 224° |
| 2026-05-04 09:09 | 33.91765 | -116.35612 | 30785 ft | 349 kts | 229° |
| 2026-05-04 09:09 | 33.90273 | -116.37832 | 30558 ft | 344 kts | 238° |
| 2026-05-04 09:10 | 33.89207 | -116.40415 | 30234 ft | 345 kts | 248° |
| 2026-05-04 09:10 | 33.88643 | -116.43229 | 29946 ft | 349 kts | 258° |
| 2026-05-04 09:10 | 33.88599 | -116.46175 | 29631 ft | 356 kts | 268° |
| 2026-05-04 09:10 | 33.89086 | -116.49134 | 29312 ft | 366 kts | 278° |
| 2026-05-04 09:11 | 33.90101 | -116.52006 | 28993 ft | 379 kts | 288° |
| 2026-05-04 09:11 | 33.91622 | -116.54671 | 28705 ft | 393 kts | 298° |
| 2026-05-04 09:11 | 33.93576 | -116.56993 | 28385 ft | 408 kts | 309° |
| 2026-05-04 09:11 | 33.96133 | -116.58756 | 27883 ft | 444 kts | 330° |
| 2026-05-04 09:12 | 33.99242 | -116.59549 | 27576 ft | 462 kts | 341° |
| 2026-05-04 09:12 | 34.02416 | -116.60107 | 27331 ft | 454 kts | 337° |
| 2026-05-04 09:14 | 34.14890 | -116.76208 | 25663 ft | 412 kts | 317° |
| 2026-05-04 09:14 | 34.17608 | -116.77609 | 25475 ft | 436 kts | 333° |
| 2026-05-04 09:14 | 34.20641 | -116.78290 | 25259 ft | 450 kts | 344° |
| 2026-05-04 09:14 | 34.23826 | -116.78309 | 25027 ft | 465 kts | 359° |
| 2026-05-04 09:15 | 34.26960 | -116.77294 | 24773 ft | 481 kts | 19° |
| 2026-05-04 09:15 | 34.29773 | -116.75007 | 24538 ft | 492 kts | 42° |
| 2026-05-04 09:15 | 34.31821 | -116.71690 | 24288 ft | 491 kts | 65° |
| 2026-05-04 09:15 | 34.32825 | -116.67796 | 24129 ft | 478 kts | 89° |
| 2026-05-04 09:17 | 34.23031 | -116.40775 | 23847 ft | 422 kts | 143° |
| 2026-05-04 09:18 | 34.20826 | -116.38666 | 23848 ft | 388 kts | 166° |
| 2026-05-04 09:18 | 34.18386 | -116.37841 | 23554 ft | 355 kts | 188° |
| 2026-05-04 09:18 | 34.16012 | -116.38148 | 23098 ft | 337 kts | 201° |
| 2026-05-04 09:18 | 34.13775 | -116.38901 | 22575 ft | 330 kts | 206° |
| 2026-05-04 09:19 | 34.11635 | -116.39869 | 22040 ft | 327 kts | 210° |
| 2026-05-04 09:19 | 34.09627 | -116.41119 | 21492 ft | 321 kts | 218° |
| 2026-05-04 09:19 | 34.07923 | -116.42790 | 21273 ft | 308 kts | 229° |
| 2026-05-04 09:19 | 34.06663 | -116.44789 | 21159 ft | 304 kts | 239° |
| 2026-05-04 09:20 | 34.05652 | -116.47076 | 21061 ft | 313 kts | 245° |
| 2026-05-04 09:20 | 34.04915 | -116.49585 | 20911 ft | 322 kts | 256° |
| 2026-05-04 09:20 | 34.04773 | -116.52282 | 20781 ft | 324 kts | 265° |
| 2026-05-04 09:20 | 34.04783 | -116.55002 | 20640 ft | 325 kts | 265° |
| 2026-05-04 09:21 | 34.04962 | -116.57723 | 20483 ft | 326 kts | 272° |
| 2026-05-04 09:21 | 34.05269 | -116.60435 | 20371 ft | 325 kts | 271° |
| 2026-05-04 09:21 | 34.05465 | -116.63116 | 20280 ft | 325 kts | 268° |
| 2026-05-04 09:21 | 34.05531 | -116.65835 | 20124 ft | 323 kts | 265° |
| 2026-05-04 09:22 | 34.05501 | -116.68545 | 19972 ft | 323 kts | 264° |
| 2026-05-04 09:22 | 34.05413 | -116.71240 | 19859 ft | 321 kts | 263° |
| 2026-05-04 09:22 | 34.05295 | -116.73930 | 19707 ft | 321 kts | 262° |
| 2026-05-04 09:22 | 34.05161 | -116.76620 | 19591 ft | 321 kts | 262° |
| 2026-05-04 09:23 | 34.05022 | -116.79313 | 19438 ft | 322 kts | 262° |
| 2026-05-04 09:23 | 34.04880 | -116.82007 | 19311 ft | 322 kts | 262° |
| 2026-05-04 09:23 | 34.04787 | -116.83788 | 19234 ft | 320 kts | 262° |
| 2026-05-04 09:23 | 34.04644 | -116.86469 | 19058 ft | 319 kts | 262° |
| 2026-05-04 09:25 | 34.02452 | -117.04840 | 16752 ft | 312 kts | 259° |
| 2026-05-04 09:25 | 34.02147 | -117.07421 | 16478 ft | 309 kts | 259° |
| 2026-05-04 09:26 | 34.01848 | -117.09979 | 16216 ft | 306 kts | 259° |
| 2026-05-04 09:26 | 34.01552 | -117.12501 | 15986 ft | 305 kts | 259° |
| 2026-05-04 09:26 | 34.01248 | -117.15060 | 15741 ft | 309 kts | 259° |
| 2026-05-04 09:26 | 34.00944 | -117.17620 | 15490 ft | 313 kts | 259° |
| 2026-05-04 09:27 | 34.00646 | -117.20122 | 15274 ft | 313 kts | 259° |
| 2026-05-04 09:27 | 34.00337 | -117.22714 | 15021 ft | 312 kts | 259° |
| 2026-05-04 09:27 | 34.00025 | -117.25318 | 14680 ft | 313 kts | 259° |
| 2026-05-04 09:27 | 33.99715 | -117.27916 | 14386 ft | 311 kts | 259° |
| 2026-05-04 09:28 | 33.99404 | -117.30500 | 14044 ft | 313 kts | 259° |
| 2026-05-04 09:28 | 33.99095 | -117.33102 | 13752 ft | 314 kts | 259° |
| 2026-05-04 09:28 | 33.98792 | -117.35676 | 13429 ft | 314 kts | 259° |
| 2026-05-04 09:28 | 33.98487 | -117.38284 | 13133 ft | 312 kts | 259° |
| 2026-05-04 09:29 | 33.98182 | -117.40880 | 12838 ft | 311 kts | 260° |
| 2026-05-04 09:29 | 33.97880 | -117.43451 | 12560 ft | 310 kts | 260° |
| 2026-05-04 09:29 | 33.97577 | -117.46014 | 12282 ft | 308 kts | 260° |
| 2026-05-04 09:29 | 33.97283 | -117.48507 | 11991 ft | 297 kts | 260° |
| 2026-05-04 09:30 | 33.97103 | -117.51001 | 11703 ft | 301 kts | 265° |
| 2026-05-04 09:30 | 33.97058 | -117.53533 | 11391 ft | 301 kts | 267° |
| 2026-05-04 09:30 | 33.97042 | -117.56054 | 11102 ft | 300 kts | 268° |
| 2026-05-04 09:30 | 33.97027 | -117.58533 | 10910 ft | 287 kts | 267° |
| 2026-05-04 09:31 | 33.97007 | -117.60848 | 10542 ft | 274 kts | 267° |
| 2026-05-04 09:31 | 33.96979 | -117.63177 | 10129 ft | 274 kts | 268° |
| 2026-05-04 09:31 | 33.96948 | -117.65426 | 9896 ft | 270 kts | 268° |
| 2026-05-04 09:31 | 33.96914 | -117.67682 | 9593 ft | 267 kts | 268° |
| 2026-05-04 09:32 | 33.96878 | -117.69904 | 9333 ft | 264 kts | 268° |
| 2026-05-04 09:32 | 33.96841 | -117.72104 | 9061 ft | 261 kts | 268° |
| 2026-05-04 09:34 | 33.96564 | -117.87140 | 7199 ft | 259 kts | 268° |
| 2026-05-04 09:34 | 33.96521 | -117.89310 | 6933 ft | 259 kts | 268° |
| 2026-05-04 09:34 | 33.96477 | -117.91471 | 6651 ft | 257 kts | 268° |
| 2026-05-04 09:34 | 33.96438 | -117.93616 | 6391 ft | 255 kts | 268° |
| 2026-05-04 09:35 | 33.96397 | -117.95718 | 6116 ft | 253 kts | 268° |
| 2026-05-04 09:35 | 33.96354 | -117.97837 | 5837 ft | 252 kts | 268° |
| 2026-05-04 09:35 | 33.96312 | -117.99940 | 5589 ft | 251 kts | 268° |
| 2026-05-04 09:35 | 33.96270 | -118.02041 | 5321 ft | 250 kts | 268° |
| 2026-05-04 09:37 | 33.95975 | -118.15852 | 3659 ft | 213 kts | 266° |
| 2026-05-04 09:37 | 33.95856 | -118.17591 | 3500 ft | 207 kts | 263° |
| 2026-05-04 09:38 | 33.95689 | -118.19308 | 3228 ft | 204 kts | 262° |
| 2026-05-04 09:38 | 33.95517 | -118.20976 | 2955 ft | 202 kts | 262° |
| 2026-05-04 09:38 | 33.95344 | -118.22651 | 2678 ft | 194 kts | 262° |
| 2026-05-04 09:38 | 33.95187 | -118.24182 | 2459 ft | 179 kts | 263° |
| 2026-05-04 09:39 | 33.95039 | -118.25624 | 2191 ft | 167 kts | 262° |
| 2026-05-04 09:39 | 33.94901 | -118.26966 | 1973 ft | 158 kts | 263° |
| 2026-05-04 09:39 | 33.94766 | -118.28275 | 1757 ft | 154 kts | 262° |
| 2026-05-04 09:39 | 33.94638 | -118.29527 | 1569 ft | 148 kts | 262° |
| 2026-05-04 09:40 | 33.94510 | -118.30763 | 1369 ft | 150 kts | 262° |
| 2026-05-04 09:40 | 33.94383 | -118.31996 | 1166 ft | 150 kts | 262° |
| 2026-05-04 09:40 | 33.94239 | -118.33241 | 918 ft | 149 kts | 262° |
| 2026-05-04 09:40 | 33.94113 | -118.34477 | 690 ft | 149 kts | 263° |
| 2026-05-04 09:41 | 33.93988 | -118.35722 | 472 ft | 150 kts | 263° |
| 2026-05-04 09:42 | 33.93475 | -118.40881 | 102 ft | 23 kts | 271° |
| 2026-05-04 09:43 | 33.93495 | -118.41042 | 101 ft | 15 kts | 286° |
| 2026-05-04 09:43 | 33.93524 | -118.41133 | 101 ft | 12 kts | 292° |
| 2026-05-04 09:43 | 33.93539 | -118.41228 | 100 ft | 12 kts | 272° |
| 2026-05-04 09:43 | 33.93533 | -118.41324 | 102 ft | 12 kts | 263° |
| 2026-05-04 09:44 | 33.93524 | -118.41420 | 102 ft | 12 kts | 263° |
| 2026-05-04 09:44 | 33.93515 | -118.41516 | 101 ft | 12 kts | 263° |
| 2026-05-04 09:44 | 33.93507 | -118.41611 | 102 ft | 12 kts | 263° |
| 2026-05-04 09:46 | 33.93541 | -118.41914 | 105 ft | 11 kts | 342° |
| 2026-05-04 09:46 | 33.93615 | -118.41933 | 104 ft | 11 kts | 352° |
| 2026-05-04 09:46 | 33.93684 | -118.41893 | 102 ft | 13 kts | 69° |
| 2026-05-04 09:47 | 33.93728 | -118.41803 | 103 ft | 13 kts | 27° |
| 2026-05-04 09:47 | 33.93786 | -118.41715 | 99 ft | 14 kts | 72° |
| 2026-05-04 09:49 | 33.93908 | -118.40816 | 98 ft | 12 kts | 15° |
| 2026-05-04 09:49 | 33.93993 | -118.40824 | 99 ft | 12 kts | 353° |
| 2026-05-04 09:49 | 33.94078 | -118.40836 | 99 ft | 10 kts | 353° |
| 2026-05-04 09:51 | 33.94162 | -118.40769 | 98 ft | 2 kts | 80° |
| 2026-05-04 09:51 | 33.94163 | -118.40765 | 98 ft | 1 kts | 80° |
| 2026-05-04 09:51 | 33.94163 | -118.40764 | 98 ft | 0 kts | 80° |